createdAt,value
2022-11-05T00:00:33.580Z,55.89
2022-11-05T00:03:19.141Z,55.89
2022-11-05T00:06:06.731Z,55.98
2022-11-05T00:08:52.737Z,55.84
2022-11-05T00:11:39.258Z,55.95
2022-11-05T00:14:24.551Z,55.89
2022-11-05T00:16:51.201Z,55.74
2022-11-05T00:19:17.963Z,55.85
2022-11-05T00:22:03.169Z,55.97
2022-11-05T00:24:48.457Z,55.93
2022-11-05T00:27:15.256Z,55.86
2022-11-05T00:29:42.090Z,55.90
2022-11-05T00:32:08.671Z,55.77
2022-11-05T00:34:35.300Z,55.95
2022-11-05T00:37:01.890Z,56.02
2022-11-05T00:39:28.742Z,55.93
2022-11-05T00:42:13.941Z,55.97
2022-11-05T00:44:59.393Z,55.82
2022-11-05T00:47:44.665Z,55.96
2022-11-05T00:50:11.728Z,55.98
2022-11-05T00:52:56.994Z,55.99
2022-11-05T00:55:38.636Z,56.04
2022-11-05T00:58:10.563Z,56.04
2022-11-05T01:00:41.146Z,56.04
2022-11-05T01:03:10.404Z,56.25
2022-11-05T01:05:45.227Z,56.04
2022-11-05T01:08:13.695Z,55.92
2022-11-05T01:10:41.881Z,56.01
2022-11-05T01:13:12.895Z,55.93
2022-11-05T01:15:40.279Z,56.08
2022-11-05T01:18:07.444Z,56.03
2022-11-05T01:20:34.107Z,56.19
2022-11-05T01:23:01.028Z,56.27
2022-11-05T01:25:28.036Z,56.20
2022-11-05T01:27:54.715Z,56.05
2022-11-05T01:30:21.863Z,56.12
2022-11-05T01:32:48.454Z,56.25
2022-11-05T01:35:17.378Z,56.16
2022-11-05T01:37:44.719Z,56.11
2022-11-05T01:40:19.851Z,55.96
2022-11-05T01:42:46.930Z,56.14
2022-11-05T01:45:27.651Z,56.20
2022-11-05T01:48:05.324Z,56.00
2022-11-05T01:50:41.251Z,56.17
2022-11-05T01:53:34.448Z,56.25
2022-11-05T01:56:12.492Z,56.24
2022-11-05T01:58:51.695Z,56.19
2022-11-05T02:01:19.446Z,56.06
2022-11-05T02:03:49.599Z,56.26
2022-11-05T02:06:17.691Z,56.06
2022-11-05T02:09:06.508Z,56.22
2022-11-05T02:11:33.591Z,56.31
2022-11-05T02:14:00.703Z,56.30
2022-11-05T02:17:08.873Z,56.28
2022-11-05T02:20:12.324Z,56.32
2022-11-05T02:23:07.810Z,56.55
2022-11-05T02:26:17.502Z,56.21
2022-11-05T02:29:54.668Z,56.42
2022-11-05T02:32:55.617Z,56.56
2022-11-05T02:35:40.169Z,56.20
2022-11-05T02:38:10.043Z,56.35
2022-11-05T02:40:50.765Z,56.41
2022-11-05T02:43:37.672Z,56.42
2022-11-05T02:55:49.608Z,56.49
2022-11-05T02:58:17.244Z,56.60
2022-11-05T03:06:51.817Z,56.35
2022-11-05T03:10:11.678Z,56.69
2022-11-05T03:13:15.263Z,56.40
2022-11-05T03:15:58.470Z,56.26
2022-11-05T03:18:46.160Z,56.50
2022-11-05T03:21:21.801Z,56.43
2022-11-05T03:24:10.889Z,56.59
2022-11-05T03:26:57.240Z,56.28
2022-11-05T03:29:33.111Z,56.58
2022-11-05T03:32:03.177Z,56.50
2022-11-05T03:34:38.772Z,56.39
2022-11-05T03:37:08.076Z,56.50
2022-11-05T03:39:43.204Z,56.41
2022-11-05T03:42:13.370Z,56.37
2022-11-05T03:44:46.116Z,56.58
2022-11-05T03:47:17.173Z,56.47
2022-11-05T03:50:17.751Z,56.40
2022-11-05T03:53:00.847Z,56.62
2022-11-05T03:55:33.960Z,56.40
2022-11-05T03:58:04.052Z,56.64
2022-11-05T04:00:30.924Z,56.37
2022-11-05T04:02:57.776Z,56.53
2022-11-05T04:05:24.523Z,56.36
2022-11-05T04:08:14.060Z,56.57
2022-11-05T04:11:07.672Z,56.57
2022-11-05T04:13:34.500Z,56.54
2022-11-05T04:16:19.813Z,56.57
2022-11-05T04:18:47.211Z,56.53
2022-11-05T04:21:32.447Z,56.56
2022-11-05T04:24:08.262Z,56.53
2022-11-05T04:26:43.803Z,56.59
2022-11-05T04:29:29.068Z,56.63
2022-11-05T04:31:55.940Z,56.61
2022-11-05T04:34:23.136Z,56.51
2022-11-05T04:36:50.941Z,56.69
2022-11-05T04:39:18.942Z,56.54
2022-11-05T04:41:48.156Z,56.45
2022-11-05T04:44:15.992Z,56.69
2022-11-05T04:46:42.884Z,56.85
2022-11-05T04:49:09.530Z,56.80
2022-11-05T04:51:36.112Z,56.50
2022-11-05T04:54:02.739Z,56.37
2022-11-05T04:56:29.341Z,56.25
2022-11-05T04:58:55.951Z,56.20
2022-11-05T05:01:25.151Z,56.13
2022-11-05T05:03:53.284Z,56.10
2022-11-05T05:06:20.811Z,55.56
2022-11-05T05:08:48.669Z,55.68
2022-11-05T05:11:20.004Z,55.66
2022-11-05T05:13:47.143Z,55.75
2022-11-05T05:16:22.452Z,55.60
2022-11-05T05:18:50.601Z,55.17
2022-11-05T05:21:37.391Z,55.40
2022-11-05T05:24:06.584Z,55.32
2022-11-05T05:26:33.178Z,55.38
2022-11-05T05:28:59.755Z,55.26
2022-11-05T05:31:26.570Z,55.06
2022-11-05T05:33:54.467Z,54.85
2022-11-05T05:36:22.083Z,54.70
2022-11-05T05:38:49.091Z,54.85
2022-11-05T05:41:16.044Z,54.49
2022-11-05T05:43:42.667Z,54.56
2022-11-05T05:46:12.005Z,54.43
2022-11-05T05:48:38.949Z,54.50
2022-11-05T05:51:08.645Z,54.24
2022-11-05T05:53:36.522Z,54.32
2022-11-05T05:56:04.755Z,54.08
2022-11-05T05:58:35.238Z,53.94
2022-11-05T06:01:15.713Z,53.83
2022-11-05T06:03:45.177Z,53.67
2022-11-05T06:06:13.479Z,53.46
2022-11-05T06:08:40.767Z,53.36
2022-11-05T06:11:08.557Z,53.41
2022-11-05T06:13:36.404Z,53.03
2022-11-05T06:16:08.295Z,53.12
2022-11-05T06:18:35.975Z,53.19
2022-11-05T06:21:08.033Z,53.20
2022-11-05T06:23:38.156Z,53.26
2022-11-05T06:26:07.665Z,53.31
2022-11-05T06:28:34.490Z,53.44
2022-11-05T06:31:01.846Z,53.43
2022-11-05T06:33:28.487Z,53.43
2022-11-05T06:35:58.877Z,53.40
2022-11-05T06:38:25.615Z,53.19
2022-11-05T06:40:52.248Z,53.40
2022-11-05T06:43:19.053Z,53.54
2022-11-05T06:45:45.662Z,53.30
2022-11-05T06:48:12.416Z,53.67
2022-11-05T06:50:39.054Z,53.23
2022-11-05T06:53:06.082Z,53.40
2022-11-05T06:55:32.854Z,53.46
2022-11-05T06:57:59.463Z,53.17
2022-11-05T07:00:26.397Z,53.16
2022-11-05T07:02:52.996Z,53.24
2022-11-05T07:05:19.594Z,53.13
2022-11-05T07:07:46.392Z,53.01
2022-11-05T07:10:18.784Z,53.17
2022-11-05T07:12:45.382Z,52.95
2022-11-05T07:15:12.643Z,53.11
2022-11-05T07:17:40.305Z,52.74
2022-11-05T07:20:08.339Z,53.08
2022-11-05T07:22:35.852Z,53.03
2022-11-05T07:25:02.688Z,52.84
2022-11-05T07:27:29.349Z,53.02
2022-11-05T07:29:55.965Z,52.84
2022-11-05T07:32:22.702Z,52.93
2022-11-05T07:34:49.366Z,52.93
2022-11-05T07:37:16.818Z,52.82
2022-11-05T07:39:43.505Z,52.72
2022-11-05T07:42:16.068Z,52.87
2022-11-05T07:44:46.661Z,52.66
2022-11-05T07:47:13.526Z,52.58
2022-11-05T07:49:45.699Z,52.67
2022-11-05T07:52:12.107Z,52.79
2022-11-05T07:54:39.847Z,52.76
2022-11-05T07:57:06.441Z,52.95
2022-11-05T07:59:33.042Z,52.91
2022-11-05T08:02:00.095Z,52.77
2022-11-05T08:04:26.871Z,49.58
2022-11-05T08:06:53.457Z,48.07
2022-11-05T08:09:20.071Z,49.48
2022-11-05T18:29:47.056Z,55.91
2022-11-05T18:32:34.036Z,57.36
2022-11-05T18:35:21.011Z,59.92
2022-11-05T18:38:07.925Z,62.31
2022-11-05T18:40:55.058Z,63.69
2022-11-05T18:43:42.073Z,65.11
2022-11-05T18:46:56.411Z,66.01
2022-11-05T18:49:37.995Z,66.94
2022-11-05T18:52:26.602Z,67.61
2022-11-05T18:55:13.509Z,67.94
2022-11-05T18:58:00.505Z,68.43
2022-11-05T19:00:47.413Z,68.79
2022-11-05T19:03:34.548Z,68.74
2022-11-05T19:06:21.799Z,69.21
2022-11-05T19:09:11.949Z,69.54
2022-11-05T19:11:58.867Z,69.59
2022-11-05T19:14:46.092Z,69.57
2022-11-05T19:17:33.499Z,69.61
2022-11-05T19:20:20.424Z,69.96
2022-11-05T19:23:07.395Z,69.59
2022-11-05T19:25:54.670Z,69.69
2022-11-05T19:28:42.483Z,69.53
2022-11-05T19:31:32.095Z,69.62
2022-11-05T19:34:19.243Z,69.71
2022-11-05T19:37:08.150Z,69.88
2022-11-05T19:39:55.056Z,69.52
2022-11-05T19:42:42.024Z,69.70
2022-11-05T19:45:45.487Z,69.62
2022-11-05T19:48:32.876Z,69.75
2022-11-05T19:51:23.109Z,69.49
2022-11-05T19:54:10.025Z,69.69
2022-11-05T19:56:57.313Z,69.85
2022-11-05T19:59:44.292Z,69.76
2022-11-05T20:02:31.368Z,69.51
2022-11-05T20:05:18.442Z,69.55
2022-11-05T20:08:05.672Z,69.62
2022-11-05T20:10:56.091Z,69.46
2022-11-05T20:13:43.031Z,69.70
2022-11-05T20:16:38.116Z,69.22
2022-11-05T20:19:25.026Z,69.25
2022-11-05T20:22:12.239Z,69.37
2022-11-05T20:24:59.159Z,69.42
2022-11-05T20:27:46.155Z,69.21
2022-11-05T20:30:33.058Z,69.37
2022-11-05T20:33:20.433Z,69.31
2022-11-05T20:36:10.141Z,69.55
2022-11-05T20:38:58.317Z,69.16
2022-11-05T20:41:45.224Z,69.35
2022-11-05T20:44:32.380Z,69.31
2022-11-05T20:47:19.309Z,69.20
2022-11-05T20:50:07.699Z,69.04
2022-11-05T20:52:54.628Z,69.03
2022-11-05T20:55:46.664Z,68.85
2022-11-05T20:58:33.646Z,68.83
2022-11-05T21:01:20.809Z,68.81
2022-11-05T21:04:07.864Z,68.93
2022-11-05T21:06:54.933Z,68.66
2022-11-05T21:09:41.846Z,68.91
2022-11-05T21:12:28.854Z,68.72
2022-11-05T21:15:24.657Z,68.82
2022-11-05T21:18:12.546Z,69.19
2022-11-05T21:21:02.681Z,69.06
2022-11-05T21:23:51.651Z,69.20
2022-11-05T21:26:38.997Z,69.20
2022-11-05T21:29:26.386Z,69.29
2022-11-05T21:32:13.384Z,69.51
2022-11-05T21:35:00.367Z,69.65
2022-11-05T21:37:47.300Z,69.80
2022-11-05T21:40:34.616Z,69.59
2022-11-05T21:43:21.536Z,69.44
2022-11-05T21:46:10.736Z,69.50
2022-11-05T21:48:57.651Z,69.65
2022-11-05T21:52:03.384Z,69.62
2022-11-05T21:55:09.047Z,69.43
2022-11-05T21:58:14.685Z,69.51
2022-11-05T22:01:02.371Z,69.91
2022-11-05T22:03:49.327Z,69.82
2022-11-05T22:06:36.234Z,69.83
2022-11-05T22:09:23.933Z,69.89
2022-11-05T22:12:10.915Z,70.30
2022-11-05T22:14:57.941Z,70.15
2022-11-05T22:17:47.151Z,70.27
2022-11-05T22:20:38.907Z,70.68
2022-11-05T22:23:25.850Z,70.54
2022-11-05T22:26:12.896Z,70.20
2022-11-05T22:28:59.826Z,69.93
2022-11-05T22:31:46.743Z,69.79
2022-11-05T22:34:34.160Z,69.68
2022-11-05T22:37:21.119Z,69.64
2022-11-05T22:40:08.715Z,69.51
2022-11-05T22:42:55.682Z,69.47
2022-11-05T22:45:43.812Z,69.33
2022-11-05T22:48:30.976Z,68.99
2022-11-05T22:51:21.084Z,68.73
2022-11-05T22:54:08.248Z,69.00
2022-11-05T22:56:55.174Z,68.96
2022-11-05T22:59:42.303Z,69.10
2022-11-05T23:02:29.526Z,68.70
2022-11-05T23:05:16.708Z,68.84
2022-11-05T23:08:22.227Z,68.77
2022-11-05T23:11:35.992Z,68.74
2022-11-05T23:14:23.428Z,68.59
2022-11-05T23:17:29.243Z,68.83
2022-11-05T23:20:41.812Z,68.52
2022-11-05T23:23:47.402Z,68.78
2022-11-05T23:26:51.530Z,68.21
2022-11-05T23:29:38.558Z,68.41
2022-11-05T23:32:25.954Z,68.58
2022-11-05T23:35:13.759Z,68.43
2022-11-05T23:38:19.309Z,68.51
2022-11-05T23:41:24.727Z,68.24
2022-11-05T23:44:30.068Z,68.38
2022-11-05T23:47:35.727Z,68.25
2022-11-05T23:50:23.050Z,68.32
2022-11-05T23:53:10.111Z,68.28
2022-11-05T23:56:12.328Z,67.99
2022-11-05T23:58:59.462Z,68.15
